sensor_id;sensor_type;location;lat;lon;timestamp;pressure;altitude;pressure_sealevel;temperature;humidity
31195;BME280;17819;36.316;-93.164;2022-10-29T00:00:44;114490.28;;;-146.31;37.88
31195;BME280;17819;36.316;-93.164;2022-10-29T00:02:51;114490.28;;;-146.31;37.81
31195;BME280;17819;36.316;-93.164;2022-10-29T00:04:55;114490.28;;;-146.31;38.10
31195;BME280;17819;36.316;-93.164;2022-10-29T00:06:58;114490.28;;;-146.31;38.27
31195;BME280;17819;36.316;-93.164;2022-10-29T00:09:03;114490.28;;;-146.31;37.73
31195;BME280;17819;36.316;-93.164;2022-10-29T00:11:11;114490.28;;;-146.31;37.98
31195;BME280;17819;36.316;-93.164;2022-10-29T00:13:16;114490.28;;;-146.31;37.97
31195;BME280;17819;36.316;-93.164;2022-10-29T00:15:19;114490.28;;;-146.31;38.02
31195;BME280;17819;36.316;-93.164;2022-10-29T00:17:27;114490.28;;;-146.31;37.88
31195;BME280;17819;36.316;-93.164;2022-10-29T00:19:30;114490.28;;;-146.31;38.47
31195;BME280;17819;36.316;-93.164;2022-10-29T00:21:34;114490.28;;;-146.31;38.34
31195;BME280;17819;36.316;-93.164;2022-10-29T00:23:40;114490.28;;;-146.31;38.24
31195;BME280;17819;36.316;-93.164;2022-10-29T00:25:43;114490.28;;;-146.31;37.87
31195;BME280;17819;36.316;-93.164;2022-10-29T00:27:47;114490.28;;;-146.31;38.30
31195;BME280;17819;36.316;-93.164;2022-10-29T00:29:51;114490.28;;;-146.31;38.03
31195;BME280;17819;36.316;-93.164;2022-10-29T00:31:55;114490.28;;;-146.31;38.53
31195;BME280;17819;36.316;-93.164;2022-10-29T00:33:58;114490.28;;;-146.31;38.65
31195;BME280;17819;36.316;-93.164;2022-10-29T00:36:04;114490.28;;;-146.31;38.46
31195;BME280;17819;36.316;-93.164;2022-10-29T00:38:08;114490.28;;;-146.31;38.84
31195;BME280;17819;36.316;-93.164;2022-10-29T00:40:12;114490.28;;;-146.31;38.97
31195;BME280;17819;36.316;-93.164;2022-10-29T00:42:16;114490.28;;;-146.31;38.91
31195;BME280;17819;36.316;-93.164;2022-10-29T00:46:32;114490.28;;;-146.31;39.60
31195;BME280;17819;36.316;-93.164;2022-10-29T00:48:41;114490.28;;;-146.31;39.84
31195;BME280;17819;36.316;-93.164;2022-10-29T00:50:46;114490.28;;;-146.31;39.27
31195;BME280;17819;36.316;-93.164;2022-10-29T00:52:54;114490.28;;;-146.31;39.43
31195;BME280;17819;36.316;-93.164;2022-10-29T00:54:59;114490.28;;;-146.31;39.32
31195;BME280;17819;36.316;-93.164;2022-10-29T00:57:08;114490.28;;;-146.31;39.99
31195;BME280;17819;36.316;-93.164;2022-10-29T00:59:14;114490.28;;;-146.31;40.15
31195;BME280;17819;36.316;-93.164;2022-10-29T01:01:18;114490.28;;;-146.31;39.60
31195;BME280;17819;36.316;-93.164;2022-10-29T01:03:23;114490.28;;;-146.31;42.01
31195;BME280;17819;36.316;-93.164;2022-10-29T01:05:26;114490.28;;;-146.31;40.89
31195;BME280;17819;36.316;-93.164;2022-10-29T01:07:31;114490.28;;;-146.31;40.06
31195;BME280;17819;36.316;-93.164;2022-10-29T01:09:35;114490.28;;;-146.31;40.52
31195;BME280;17819;36.316;-93.164;2022-10-29T01:14:04;114490.28;;;-146.31;41.37
31195;BME280;17819;36.316;-93.164;2022-10-29T01:18:34;114490.28;;;-146.31;43.14
31195;BME280;17819;36.316;-93.164;2022-10-29T01:29:40;114490.28;;;-146.31;58.96
31195;BME280;17819;36.316;-93.164;2022-10-29T01:36:08;114490.28;;;-146.31;69.58
31195;BME280;17819;36.316;-93.164;2022-10-29T01:38:23;114490.28;;;-146.31;74.88
31195;BME280;17819;36.316;-93.164;2022-10-29T01:40:38;114490.28;;;-146.31;75.71
31195;BME280;17819;36.316;-93.164;2022-10-29T01:42:50;114490.28;;;-146.31;81.71
31195;BME280;17819;36.316;-93.164;2022-10-29T01:45:04;114490.28;;;-146.31;86.63
31195;BME280;17819;36.316;-93.164;2022-10-29T01:47:19;114490.28;;;-146.31;86.18
31195;BME280;17819;36.316;-93.164;2022-10-29T01:49:24;114490.28;;;-146.31;84.96
31195;BME280;17819;36.316;-93.164;2022-10-29T01:51:32;114490.28;;;-146.31;88.84
31195;BME280;17819;36.316;-93.164;2022-10-29T01:53:36;114490.28;;;-146.31;86.70
31195;BME280;17819;36.316;-93.164;2022-10-29T01:55:42;114490.28;;;-146.31;97.45
31195;BME280;17819;36.316;-93.164;2022-10-29T01:57:46;114490.28;;;-146.31;100.00
31195;BME280;17819;36.316;-93.164;2022-10-29T01:59:51;114490.28;;;-146.31;100.00
31195;BME280;17819;36.316;-93.164;2022-10-29T02:04:15;114490.28;;;-146.31;100.00
31195;BME280;17819;36.316;-93.164;2022-10-29T02:13:17;114490.28;;;-146.31;100.00
31195;BME280;17819;36.316;-93.164;2022-10-29T02:15:36;114490.28;;;-146.31;100.00
31195;BME280;17819;36.316;-93.164;2022-10-29T02:17:42;114490.28;;;-146.31;100.00
31195;BME280;17819;36.316;-93.164;2022-10-29T02:19:45;114490.28;;;-146.31;100.00
31195;BME280;17819;36.316;-93.164;2022-10-29T02:21:50;114490.28;;;-146.31;100.00
31195;BME280;17819;36.316;-93.164;2022-10-29T02:23:53;114490.28;;;-146.31;100.00
31195;BME280;17819;36.316;-93.164;2022-10-29T02:25:57;114490.28;;;-146.31;100.00
31195;BME280;17819;36.316;-93.164;2022-10-29T02:28:01;114490.28;;;-146.31;100.00
31195;BME280;17819;36.316;-93.164;2022-10-29T02:30:05;114490.28;;;-146.31;100.00
31195;BME280;17819;36.316;-93.164;2022-10-29T02:32:09;114490.28;;;-146.31;100.00
31195;BME280;17819;36.316;-93.164;2022-10-29T02:34:13;114490.28;;;-146.31;100.00
31195;BME280;17819;36.316;-93.164;2022-10-29T02:36:17;114490.28;;;-146.31;100.00
31195;BME280;17819;36.316;-93.164;2022-10-29T02:38:21;114490.28;;;-146.31;100.00
31195;BME280;17819;36.316;-93.164;2022-10-29T02:40:24;114490.28;;;-146.31;100.00
31195;BME280;17819;36.316;-93.164;2022-10-29T02:42:29;114490.28;;;-146.31;100.00
31195;BME280;17819;36.316;-93.164;2022-10-29T02:44:32;114490.28;;;-146.31;100.00
31195;BME280;17819;36.316;-93.164;2022-10-29T02:46:36;114490.28;;;-146.31;100.00
31195;BME280;17819;36.316;-93.164;2022-10-29T02:48:44;114490.28;;;-146.31;100.00
31195;BME280;17819;36.316;-93.164;2022-10-29T02:50:48;114490.28;;;-146.31;100.00
31195;BME280;17819;36.316;-93.164;2022-10-29T02:52:51;114490.28;;;-146.31;100.00
31195;BME280;17819;36.316;-93.164;2022-10-29T02:54:55;114490.28;;;-146.31;100.00
31195;BME280;17819;36.316;-93.164;2022-10-29T02:56:59;114490.28;;;-146.31;100.00
31195;BME280;17819;36.316;-93.164;2022-10-29T02:59:02;114490.28;;;-146.31;100.00
31195;BME280;17819;36.316;-93.164;2022-10-29T03:01:12;114490.28;;;-146.31;100.00
31195;BME280;17819;36.316;-93.164;2022-10-29T03:03:16;114490.28;;;-146.31;100.00
31195;BME280;17819;36.316;-93.164;2022-10-29T03:05:20;114490.28;;;-146.31;100.00
31195;BME280;17819;36.316;-93.164;2022-10-29T03:07:24;114490.28;;;-146.31;100.00
31195;BME280;17819;36.316;-93.164;2022-10-29T03:09:28;114490.28;;;-146.31;100.00
31195;BME280;17819;36.316;-93.164;2022-10-29T03:11:32;114490.28;;;-146.31;100.00
31195;BME280;17819;36.316;-93.164;2022-10-29T03:13:35;114490.28;;;-146.31;100.00
31195;BME280;17819;36.316;-93.164;2022-10-29T03:15:44;114490.28;;;-146.31;100.00
31195;BME280;17819;36.316;-93.164;2022-10-29T03:17:48;114490.28;;;-146.31;100.00
31195;BME280;17819;36.316;-93.164;2022-10-29T03:19:51;114490.28;;;-146.31;100.00
31195;BME280;17819;36.316;-93.164;2022-10-29T03:21:55;114490.28;;;-146.31;100.00
31195;BME280;17819;36.316;-93.164;2022-10-29T03:23:58;114490.28;;;-146.31;100.00
31195;BME280;17819;36.316;-93.164;2022-10-29T03:26:02;114490.28;;;-146.31;100.00
31195;BME280;17819;36.316;-93.164;2022-10-29T03:28:06;114490.28;;;-146.31;100.00
31195;BME280;17819;36.316;-93.164;2022-10-29T03:30:11;114490.28;;;-146.31;100.00
31195;BME280;17819;36.316;-93.164;2022-10-29T03:32:15;114490.28;;;-146.31;100.00
31195;BME280;17819;36.316;-93.164;2022-10-29T03:34:19;114490.28;;;-146.31;100.00
31195;BME280;17819;36.316;-93.164;2022-10-29T03:36:22;114490.28;;;-146.31;100.00
31195;BME280;17819;36.316;-93.164;2022-10-29T03:38:26;114490.28;;;-146.31;100.00
31195;BME280;17819;36.316;-93.164;2022-10-29T03:40:30;114490.28;;;-146.31;100.00
31195;BME280;17819;36.316;-93.164;2022-10-29T03:42:33;114490.28;;;-146.31;100.00
31195;BME280;17819;36.316;-93.164;2022-10-29T03:44:37;114490.28;;;-146.31;100.00
31195;BME280;17819;36.316;-93.164;2022-10-29T03:46:41;114490.28;;;-146.31;100.00
31195;BME280;17819;36.316;-93.164;2022-10-29T03:48:47;114490.28;;;-146.31;100.00
31195;BME280;17819;36.316;-93.164;2022-10-29T03:51:01;114490.28;;;-146.31;100.00
31195;BME280;17819;36.316;-93.164;2022-10-29T03:53:07;114490.28;;;-146.31;100.00
31195;BME280;17819;36.316;-93.164;2022-10-29T03:55:11;114490.28;;;-146.31;100.00
31195;BME280;17819;36.316;-93.164;2022-10-29T03:57:15;114490.28;;;-146.31;100.00
31195;BME280;17819;36.316;-93.164;2022-10-29T03:59:19;114490.28;;;-146.31;100.00
31195;BME280;17819;36.316;-93.164;2022-10-29T04:01:22;114490.28;;;-146.31;100.00
31195;BME280;17819;36.316;-93.164;2022-10-29T04:03:28;114490.28;;;-146.31;100.00
31195;BME280;17819;36.316;-93.164;2022-10-29T04:05:32;114490.28;;;-146.31;100.00
31195;BME280;17819;36.316;-93.164;2022-10-29T04:07:36;114490.28;;;-146.31;100.00
31195;BME280;17819;36.316;-93.164;2022-10-29T04:09:40;114490.28;;;-146.31;100.00
31195;BME280;17819;36.316;-93.164;2022-10-29T04:11:43;114490.28;;;-146.31;100.00
31195;BME280;17819;36.316;-93.164;2022-10-29T04:13:50;114490.28;;;-146.31;100.00
31195;BME280;17819;36.316;-93.164;2022-10-29T04:15:54;114490.28;;;-146.31;100.00
31195;BME280;17819;36.316;-93.164;2022-10-29T04:17:58;114490.28;;;-146.31;100.00
31195;BME280;17819;36.316;-93.164;2022-10-29T04:20:01;114490.28;;;-146.31;100.00
31195;BME280;17819;36.316;-93.164;2022-10-29T04:22:21;114490.28;;;-146.31;100.00
31195;BME280;17819;36.316;-93.164;2022-10-29T04:24:45;114490.28;;;-146.31;100.00
31195;BME280;17819;36.316;-93.164;2022-10-29T04:27:08;114490.28;;;-146.31;100.00
31195;BME280;17819;36.316;-93.164;2022-10-29T04:29:32;114490.28;;;-146.31;100.00
31195;BME280;17819;36.316;-93.164;2022-10-29T04:31:36;114490.28;;;-146.31;100.00
31195;BME280;17819;36.316;-93.164;2022-10-29T04:33:40;114490.28;;;-146.31;100.00
31195;BME280;17819;36.316;-93.164;2022-10-29T04:35:49;114490.28;;;-146.31;100.00
31195;BME280;17819;36.316;-93.164;2022-10-29T04:37:53;114490.28;;;-146.31;100.00
31195;BME280;17819;36.316;-93.164;2022-10-29T04:39:57;114490.28;;;-146.31;97.05
31195;BME280;17819;36.316;-93.164;2022-10-29T04:42:02;114490.28;;;-146.31;95.13
31195;BME280;17819;36.316;-93.164;2022-10-29T04:44:05;114490.28;;;-146.31;95.81
31195;BME280;17819;36.316;-93.164;2022-10-29T04:46:09;114490.28;;;-146.31;94.52
31195;BME280;17819;36.316;-93.164;2022-10-29T04:48:14;114490.28;;;-146.31;93.86
31195;BME280;17819;36.316;-93.164;2022-10-29T04:50:17;114490.28;;;-146.31;94.29
31195;BME280;17819;36.316;-93.164;2022-10-29T04:52:21;114490.28;;;-146.31;92.82
31195;BME280;17819;36.316;-93.164;2022-10-29T04:54:25;114490.28;;;-146.31;93.51
31195;BME280;17819;36.316;-93.164;2022-10-29T04:56:29;114490.28;;;-146.31;93.17
31195;BME280;17819;36.316;-93.164;2022-10-29T04:58:33;114490.28;;;-146.31;92.73
31195;BME280;17819;36.316;-93.164;2022-10-29T05:00:37;114490.28;;;-146.31;92.84
31195;BME280;17819;36.316;-93.164;2022-10-29T05:02:41;114490.28;;;-146.31;96.42
31195;BME280;17819;36.316;-93.164;2022-10-29T05:04:44;114490.28;;;-146.31;99.09
31195;BME280;17819;36.316;-93.164;2022-10-29T05:06:48;114490.28;;;-146.31;98.14
31195;BME280;17819;36.316;-93.164;2022-10-29T05:08:52;114490.28;;;-146.31;98.13
31195;BME280;17819;36.316;-93.164;2022-10-29T05:10:55;114490.28;;;-146.31;98.29
31195;BME280;17819;36.316;-93.164;2022-10-29T05:13:00;114490.28;;;-146.31;96.98
31195;BME280;17819;36.316;-93.164;2022-10-29T05:15:05;114490.28;;;-146.31;97.10
31195;BME280;17819;36.316;-93.164;2022-10-29T05:17:08;114490.28;;;-146.31;94.25
31195;BME280;17819;36.316;-93.164;2022-10-29T05:19:12;114490.28;;;-146.31;93.18
31195;BME280;17819;36.316;-93.164;2022-10-29T05:21:16;114490.28;;;-146.31;92.96
31195;BME280;17819;36.316;-93.164;2022-10-29T05:23:20;114490.28;;;-146.31;92.97
31195;BME280;17819;36.316;-93.164;2022-10-29T05:25:23;114490.28;;;-146.31;93.47
31195;BME280;17819;36.316;-93.164;2022-10-29T05:27:27;114490.28;;;-146.31;94.21
31195;BME280;17819;36.316;-93.164;2022-10-29T05:29:31;114490.28;;;-146.31;97.06
31195;BME280;17819;36.316;-93.164;2022-10-29T05:31:34;114490.28;;;-146.31;96.46
31195;BME280;17819;36.316;-93.164;2022-10-29T05:33:38;114490.28;;;-146.31;95.85
31195;BME280;17819;36.316;-93.164;2022-10-29T05:35:41;114490.28;;;-146.31;96.09
31195;BME280;17819;36.316;-93.164;2022-10-29T05:37:52;114490.28;;;-146.31;94.04
31195;BME280;17819;36.316;-93.164;2022-10-29T05:39:57;114490.28;;;-146.31;93.87
31195;BME280;17819;36.316;-93.164;2022-10-29T05:42:00;114490.28;;;-146.31;95.99
31195;BME280;17819;36.316;-93.164;2022-10-29T05:44:05;114490.28;;;-146.31;95.00
31195;BME280;17819;36.316;-93.164;2022-10-29T05:46:09;114490.28;;;-146.31;93.83
31195;BME280;17819;36.316;-93.164;2022-10-29T05:48:13;114490.28;;;-146.31;95.64
31195;BME280;17819;36.316;-93.164;2022-10-29T05:50:17;114490.28;;;-146.31;93.40
31195;BME280;17819;36.316;-93.164;2022-10-29T05:52:20;114490.28;;;-146.31;90.94
31195;BME280;17819;36.316;-93.164;2022-10-29T05:54:23;114490.28;;;-146.31;89.98
31195;BME280;17819;36.316;-93.164;2022-10-29T05:56:27;114490.28;;;-146.31;89.72
31195;BME280;17819;36.316;-93.164;2022-10-29T05:58:31;114490.28;;;-146.31;86.78
31195;BME280;17819;36.316;-93.164;2022-10-29T06:00:35;114490.28;;;-146.31;85.67
31195;BME280;17819;36.316;-93.164;2022-10-29T06:02:42;114490.28;;;-146.31;85.78
31195;BME280;17819;36.316;-93.164;2022-10-29T06:04:46;114490.28;;;-146.31;83.90
31195;BME280;17819;36.316;-93.164;2022-10-29T06:06:50;114490.28;;;-146.31;84.34
31195;BME280;17819;36.316;-93.164;2022-10-29T06:08:54;114490.28;;;-146.31;84.34
31195;BME280;17819;36.316;-93.164;2022-10-29T06:11:01;114490.28;;;-146.31;84.48
31195;BME280;17819;36.316;-93.164;2022-10-29T06:13:09;114490.28;;;-146.31;82.41
31195;BME280;17819;36.316;-93.164;2022-10-29T06:15:13;114490.28;;;-146.31;80.99
31195;BME280;17819;36.316;-93.164;2022-10-29T06:17:17;114490.28;;;-146.31;82.68
31195;BME280;17819;36.316;-93.164;2022-10-29T06:19:20;114490.28;;;-146.31;83.49
31195;BME280;17819;36.316;-93.164;2022-10-29T06:21:24;114490.28;;;-146.31;83.58
31195;BME280;17819;36.316;-93.164;2022-10-29T06:23:28;114490.28;;;-146.31;82.60
31195;BME280;17819;36.316;-93.164;2022-10-29T06:25:34;114490.28;;;-146.31;80.52
31195;BME280;17819;36.316;-93.164;2022-10-29T06:27:38;114490.28;;;-146.31;80.67
31195;BME280;17819;36.316;-93.164;2022-10-29T06:29:41;114490.28;;;-146.31;82.04
31195;BME280;17819;36.316;-93.164;2022-10-29T06:31:45;114490.28;;;-146.31;81.74
31195;BME280;17819;36.316;-93.164;2022-10-29T06:33:49;114490.28;;;-146.31;80.99
31195;BME280;17819;36.316;-93.164;2022-10-29T06:35:56;114490.28;;;-146.31;80.31
31195;BME280;17819;36.316;-93.164;2022-10-29T06:38:03;114490.28;;;-146.31;80.24
31195;BME280;17819;36.316;-93.164;2022-10-29T06:40:12;114490.28;;;-146.31;80.27
31195;BME280;17819;36.316;-93.164;2022-10-29T06:42:16;114490.28;;;-146.31;79.50
31195;BME280;17819;36.316;-93.164;2022-10-29T06:44:20;114490.28;;;-146.31;79.44
31195;BME280;17819;36.316;-93.164;2022-10-29T06:46:24;114490.28;;;-146.31;79.78
31195;BME280;17819;36.316;-93.164;2022-10-29T06:48:28;114490.28;;;-146.31;80.58
31195;BME280;17819;36.316;-93.164;2022-10-29T06:50:31;114490.28;;;-146.31;80.49
31195;BME280;17819;36.316;-93.164;2022-10-29T06:52:35;114490.28;;;-146.31;81.19
31195;BME280;17819;36.316;-93.164;2022-10-29T06:54:39;114490.28;;;-146.31;81.12
31195;BME280;17819;36.316;-93.164;2022-10-29T06:56:43;114490.28;;;-146.31;80.63
31195;BME280;17819;36.316;-93.164;2022-10-29T06:58:46;114490.28;;;-146.31;80.46
31195;BME280;17819;36.316;-93.164;2022-10-29T07:00:50;114490.28;;;-146.31;80.81
31195;BME280;17819;36.316;-93.164;2022-10-29T07:02:54;114490.28;;;-146.31;79.81
31195;BME280;17819;36.316;-93.164;2022-10-29T07:04:59;114490.28;;;-146.31;81.42
31195;BME280;17819;36.316;-93.164;2022-10-29T07:07:02;114490.28;;;-146.31;81.02
31195;BME280;17819;36.316;-93.164;2022-10-29T07:09:06;114490.28;;;-146.31;80.12
31195;BME280;17819;36.316;-93.164;2022-10-29T07:11:10;114490.28;;;-146.31;80.82
31195;BME280;17819;36.316;-93.164;2022-10-29T07:13:16;114490.28;;;-146.31;79.97
31195;BME280;17819;36.316;-93.164;2022-10-29T07:15:19;114490.28;;;-146.31;80.06
31195;BME280;17819;36.316;-93.164;2022-10-29T07:17:28;114490.28;;;-146.31;79.61
31195;BME280;17819;36.316;-93.164;2022-10-29T07:19:32;114490.28;;;-146.31;79.18
31195;BME280;17819;36.316;-93.164;2022-10-29T07:21:36;114490.28;;;-146.31;79.54
31195;BME280;17819;36.316;-93.164;2022-10-29T07:23:39;114490.28;;;-146.31;79.34
31195;BME280;17819;36.316;-93.164;2022-10-29T07:25:43;114490.28;;;-146.31;80.87
31195;BME280;17819;36.316;-93.164;2022-10-29T07:27:47;114490.28;;;-146.31;82.12
31195;BME280;17819;36.316;-93.164;2022-10-29T07:29:53;114490.28;;;-146.31;83.77
31195;BME280;17819;36.316;-93.164;2022-10-29T07:31:57;114490.28;;;-146.31;83.26
31195;BME280;17819;36.316;-93.164;2022-10-29T07:34:00;114490.28;;;-146.31;83.29
31195;BME280;17819;36.316;-93.164;2022-10-29T07:36:04;114490.28;;;-146.31;84.06
31195;BME280;17819;36.316;-93.164;2022-10-29T07:38:08;114490.28;;;-146.31;84.07
31195;BME280;17819;36.316;-93.164;2022-10-29T07:40:12;114490.28;;;-146.31;84.17
31195;BME280;17819;36.316;-93.164;2022-10-29T07:42:16;114490.28;;;-146.31;85.58
31195;BME280;17819;36.316;-93.164;2022-10-29T07:44:21;114490.28;;;-146.31;86.98
31195;BME280;17819;36.316;-93.164;2022-10-29T07:46:24;114490.28;;;-146.31;90.80
31195;BME280;17819;36.316;-93.164;2022-10-29T07:48:28;114490.28;;;-146.31;90.18
31195;BME280;17819;36.316;-93.164;2022-10-29T07:50:32;114490.28;;;-146.31;88.94
31195;BME280;17819;36.316;-93.164;2022-10-29T07:52:35;114490.28;;;-146.31;88.31
31195;BME280;17819;36.316;-93.164;2022-10-29T07:54:39;114490.28;;;-146.31;87.61
31195;BME280;17819;36.316;-93.164;2022-10-29T07:56:42;114490.28;;;-146.31;86.82
31195;BME280;17819;36.316;-93.164;2022-10-29T07:58:48;114490.28;;;-146.31;89.77
31195;BME280;17819;36.316;-93.164;2022-10-29T08:00:52;114490.28;;;-146.31;90.06
31195;BME280;17819;36.316;-93.164;2022-10-29T08:02:56;114490.28;;;-146.31;91.51
31195;BME280;17819;36.316;-93.164;2022-10-29T08:05:00;114490.28;;;-146.31;90.18
31195;BME280;17819;36.316;-93.164;2022-10-29T08:07:04;114490.28;;;-146.31;91.26
31195;BME280;17819;36.316;-93.164;2022-10-29T08:09:08;114490.28;;;-146.31;89.61
31195;BME280;17819;36.316;-93.164;2022-10-29T08:11:12;114490.28;;;-146.31;87.57
31195;BME280;17819;36.316;-93.164;2022-10-29T08:13:15;114490.28;;;-146.31;86.66
31195;BME280;17819;36.316;-93.164;2022-10-29T08:15:20;114490.28;;;-146.31;87.33
31195;BME280;17819;36.316;-93.164;2022-10-29T08:17:23;114490.28;;;-146.31;86.02
31195;BME280;17819;36.316;-93.164;2022-10-29T08:19:27;114490.28;;;-146.31;86.15
31195;BME280;17819;36.316;-93.164;2022-10-29T08:21:31;114490.28;;;-146.31;85.83
31195;BME280;17819;36.316;-93.164;2022-10-29T08:23:35;114490.28;;;-146.31;86.01
31195;BME280;17819;36.316;-93.164;2022-10-29T08:25:39;114490.28;;;-146.31;85.84
31195;BME280;17819;36.316;-93.164;2022-10-29T08:27:44;114490.28;;;-146.31;86.43
31195;BME280;17819;36.316;-93.164;2022-10-29T08:29:48;114490.28;;;-146.31;86.51
31195;BME280;17819;36.316;-93.164;2022-10-29T08:31:52;114490.28;;;-146.31;85.74
31195;BME280;17819;36.316;-93.164;2022-10-29T08:33:55;114490.28;;;-146.31;85.65
31195;BME280;17819;36.316;-93.164;2022-10-29T08:35:59;114490.28;;;-146.31;85.55
31195;BME280;17819;36.316;-93.164;2022-10-29T08:38:03;114490.28;;;-146.31;85.75
31195;BME280;17819;36.316;-93.164;2022-10-29T08:40:11;114490.28;;;-146.31;86.21
31195;BME280;17819;36.316;-93.164;2022-10-29T08:42:23;114490.28;;;-146.31;86.70
31195;BME280;17819;36.316;-93.164;2022-10-29T08:44:32;114490.28;;;-146.31;86.64
31195;BME280;17819;36.316;-93.164;2022-10-29T08:46:44;114490.28;;;-146.31;87.71
31195;BME280;17819;36.316;-93.164;2022-10-29T08:48:51;114490.28;;;-146.31;87.33
31195;BME280;17819;36.316;-93.164;2022-10-29T08:51:30;114490.28;;;-146.31;87.74
31195;BME280;17819;36.316;-93.164;2022-10-29T08:53:30;114490.28;;;-146.31;87.42
31195;BME280;17819;36.316;-93.164;2022-10-29T08:55:37;114490.28;;;-146.31;88.02
31195;BME280;17819;36.316;-93.164;2022-10-29T08:57:42;114490.28;;;-146.31;89.06
31195;BME280;17819;36.316;-93.164;2022-10-29T09:02:16;114490.28;;;-146.31;87.82
31195;BME280;17819;36.316;-93.164;2022-10-29T09:04:24;114490.28;;;-146.31;87.79
31195;BME280;17819;36.316;-93.164;2022-10-29T09:09:20;114490.28;;;-146.31;87.26
31195;BME280;17819;36.316;-93.164;2022-10-29T09:13:53;114490.28;;;-146.31;87.05
31195;BME280;17819;36.316;-93.164;2022-10-29T09:16:17;114490.28;;;-146.31;86.74
31195;BME280;17819;36.316;-93.164;2022-10-29T09:20:40;114490.28;;;-146.31;86.65
31195;BME280;17819;36.316;-93.164;2022-10-29T09:22:52;114490.28;;;-146.31;86.11
31195;BME280;17819;36.316;-93.164;2022-10-29T09:25:10;114490.28;;;-146.31;86.01
31195;BME280;17819;36.316;-93.164;2022-10-29T09:33:35;114490.28;;;-146.31;86.70
31195;BME280;17819;36.316;-93.164;2022-10-29T09:35:42;114490.28;;;-146.31;86.96
31195;BME280;17819;36.316;-93.164;2022-10-29T09:37:53;114490.28;;;-146.31;87.20
31195;BME280;17819;36.316;-93.164;2022-10-29T09:39:58;114490.28;;;-146.31;87.42
31195;BME280;17819;36.316;-93.164;2022-10-29T09:42:07;114490.28;;;-146.31;89.07
31195;BME280;17819;36.316;-93.164;2022-10-29T09:44:18;114490.28;;;-146.31;88.72
31195;BME280;17819;36.316;-93.164;2022-10-29T09:53:24;114490.28;;;-146.31;88.66
31195;BME280;17819;36.316;-93.164;2022-10-29T09:55:35;114490.28;;;-146.31;87.42
31195;BME280;17819;36.316;-93.164;2022-10-29T09:57:40;114490.28;;;-146.31;84.70
31195;BME280;17819;36.316;-93.164;2022-10-29T09:59:46;114490.28;;;-146.31;83.89
31195;BME280;17819;36.316;-93.164;2022-10-29T10:01:50;114490.28;;;-146.31;86.93
31195;BME280;17819;36.316;-93.164;2022-10-29T10:03:54;114490.28;;;-146.31;87.02
31195;BME280;17819;36.316;-93.164;2022-10-29T10:06:00;114490.28;;;-146.31;85.35
31195;BME280;17819;36.316;-93.164;2022-10-29T10:08:04;114490.28;;;-146.31;83.29
31195;BME280;17819;36.316;-93.164;2022-10-29T10:10:26;114490.28;;;-146.31;83.29
31195;BME280;17819;36.316;-93.164;2022-10-29T10:14:39;114490.28;;;-146.31;81.08
31195;BME280;17819;36.316;-93.164;2022-10-29T10:16:43;114490.28;;;-146.31;80.87
31195;BME280;17819;36.316;-93.164;2022-10-29T10:18:47;114490.28;;;-146.31;80.37
31195;BME280;17819;36.316;-93.164;2022-10-29T10:21:10;114490.28;;;-146.31;80.84
31195;BME280;17819;36.316;-93.164;2022-10-29T10:23:20;114490.28;;;-146.31;79.00
31195;BME280;17819;36.316;-93.164;2022-10-29T10:25:37;114490.28;;;-146.31;79.25
31195;BME280;17819;36.316;-93.164;2022-10-29T10:27:41;114490.28;;;-146.31;80.80
31195;BME280;17819;36.316;-93.164;2022-10-29T10:36:19;114490.28;;;-146.31;80.56
31195;BME280;17819;36.316;-93.164;2022-10-29T10:38:24;114490.28;;;-146.31;80.50
31195;BME280;17819;36.316;-93.164;2022-10-29T10:40:28;114490.28;;;-146.31;80.61
31195;BME280;17819;36.316;-93.164;2022-10-29T10:42:33;114490.28;;;-146.31;80.51
31195;BME280;17819;36.316;-93.164;2022-10-29T10:44:58;114490.28;;;-146.31;81.48
31195;BME280;17819;36.316;-93.164;2022-10-29T10:47:04;114490.28;;;-146.31;82.94
31195;BME280;17819;36.316;-93.164;2022-10-29T10:49:13;114490.28;;;-146.31;81.79
31195;BME280;17819;36.316;-93.164;2022-10-29T10:51:25;114490.28;;;-146.31;81.72
31195;BME280;17819;36.316;-93.164;2022-10-29T10:53:30;114490.28;;;-146.31;81.78
31195;BME280;17819;36.316;-93.164;2022-10-29T10:55:36;114490.28;;;-146.31;82.15
31195;BME280;17819;36.316;-93.164;2022-10-29T10:57:41;114490.28;;;-146.31;82.21
31195;BME280;17819;36.316;-93.164;2022-10-29T11:02:16;114490.28;;;-146.31;82.65
31195;BME280;17819;36.316;-93.164;2022-10-29T11:04:25;114490.28;;;-146.31;84.25
31195;BME280;17819;36.316;-93.164;2022-10-29T11:06:32;114490.28;;;-146.31;83.36
31195;BME280;17819;36.316;-93.164;2022-10-29T11:08:39;114490.28;;;-146.31;82.41
31195;BME280;17819;36.316;-93.164;2022-10-29T11:10:53;114490.28;;;-146.31;83.58
31195;BME280;17819;36.316;-93.164;2022-10-29T11:12:57;114490.28;;;-146.31;83.65
31195;BME280;17819;36.316;-93.164;2022-10-29T11:15:04;114490.28;;;-146.31;82.88
31195;BME280;17819;36.316;-93.164;2022-10-29T11:17:18;114490.28;;;-146.31;83.59
31195;BME280;17819;36.316;-93.164;2022-10-29T11:19:33;114490.28;;;-146.31;83.19
31195;BME280;17819;36.316;-93.164;2022-10-29T11:21:42;114490.28;;;-146.31;83.44
31195;BME280;17819;36.316;-93.164;2022-10-29T11:26:13;114490.28;;;-146.31;85.35
31195;BME280;17819;36.316;-93.164;2022-10-29T11:28:20;114490.28;;;-146.31;86.61